Time;durP1;ratioP1;P1;durP2;ratioP2;P2;SDS_P1;SDS_P2;PMS_P1;PMS_P2;Temp;Humidity;BMP_temperature;BMP_pressure;BME280_temperature;BME280_humidity;BME280_pressure;Samples;Min_cycle;Max_cycle;Signal;HPM_P1;HPM_P2
2021/12/08 00:02:09;;;;;;;9.05;3.33;;;2.10;99.90;;;;;;5123864;27;20051;-76
2021/12/08 00:04:36;;;;;;;8.27;3.58;;;2.10;99.90;;;;;;5128658;27;20054;-77
2021/12/08 00:07:03;;;;;;;7.47;3.83;;;2.10;99.90;;;;;;5111565;28;20119;-77
2021/12/08 00:09:45;;;;;;;7.88;4.20;;;2.10;99.90;;;;;;5111402;28;20087;-77
2021/12/08 00:15:00;;;;;;;10.50;4.03;;;2.10;99.90;;;;;;5128365;27;20050;-76
2021/12/08 00:17:27;;;;;;;6.43;3.70;;;2.10;99.90;;;;;;5128946;27;20090;-76
2021/12/08 00:19:54;;;;;;;8.95;4.15;;;2.10;99.90;;;;;;5111222;28;20143;-75
2021/12/08 00:22:21;;;;;;;8.25;3.75;;;2.10;99.90;;;;;;5111428;28;20051;-77
2021/12/08 00:24:48;;;;;;;10.05;4.40;;;2.20;99.90;;;;;;5111698;28;20450;-76
2021/12/08 00:27:16;;;;;;;10.27;3.53;;;2.20;99.90;;;;;;5110776;28;20090;-77
2021/12/08 00:29:43;;;;;;;9.43;3.97;;;2.20;99.90;;;;;;5111761;28;20361;-77
2021/12/08 00:32:10;;;;;;;6.68;4.30;;;2.20;99.90;;;;;;5125832;27;20129;-76
2021/12/08 00:34:38;;;;;;;10.18;5.22;;;2.20;99.90;;;;;;5151781;27;20046;-76
2021/12/08 00:37:06;;;;;;;8.85;3.78;;;2.20;99.90;;;;;;5152825;27;20055;-76
2021/12/08 00:39:33;;;;;;;11.45;4.50;;;2.20;99.90;;;;;;5152882;27;20099;-77
2021/12/08 00:42:00;;;;;;;8.25;3.83;;;2.20;99.90;;;;;;5156545;27;20537;-76
2021/12/08 00:44:28;;;;;;;6.75;3.60;;;2.20;99.90;;;;;;5156784;27;20054;-76
2021/12/08 00:46:55;;;;;;;11.80;5.47;;;2.30;99.90;;;;;;5157148;27;20134;-76
2021/12/08 00:49:22;;;;;;;15.50;5.32;;;2.30;99.90;;;;;;5156246;27;20501;-76
2021/12/08 00:51:49;;;;;;;10.40;5.20;;;2.30;99.90;;;;;;5156027;27;20130;-76
2021/12/08 00:54:16;;;;;;;11.32;5.00;;;2.30;99.90;;;;;;5157358;27;20059;-76
2021/12/08 00:56:43;;;;;;;7.05;3.97;;;2.30;99.90;;;;;;5156954;27;20125;-76
2021/12/08 00:59:10;;;;;;;9.77;4.50;;;2.40;99.90;;;;;;5156690;27;20075;-76
2021/12/08 01:01:38;;;;;;;8.55;4.88;;;2.40;99.90;;;;;;5156237;27;20137;-76
2021/12/08 01:04:05;;;;;;;9.07;4.60;;;2.40;99.90;;;;;;5156078;27;20065;-76
2021/12/08 01:06:32;;;;;;;10.13;4.30;;;2.50;99.90;;;;;;5156551;27;20096;-76
2021/12/08 01:08:59;;;;;;;8.77;4.55;;;2.50;99.90;;;;;;5156100;27;20093;-76
2021/12/08 01:11:26;;;;;;;7.68;3.83;;;2.50;99.90;;;;;;5155857;27;20082;-77
2021/12/08 01:13:54;;;;;;;7.82;4.47;;;2.50;99.90;;;;;;5156658;27;20100;-76
2021/12/08 01:16:22;;;;;;;7.97;4.03;;;2.50;99.90;;;;;;5155174;27;20134;-76
2021/12/08 01:18:51;;;;;;;9.38;4.30;;;2.50;99.90;;;;;;5156041;27;20078;-75
2021/12/08 01:21:18;;;;;;;8.75;3.72;;;2.60;99.90;;;;;;5155821;27;20149;-75
2021/12/08 01:23:45;;;;;;;11.40;4.70;;;2.60;99.90;;;;;;5155852;27;20141;-75
2021/12/08 01:26:12;;;;;;;7.97;4.10;;;2.60;99.90;;;;;;5156234;27;20129;-76
2021/12/08 01:28:39;;;;;;;8.65;4.95;;;2.70;99.90;;;;;;5155970;27;20050;-75
2021/12/08 01:31:06;;;;;;;9.13;4.40;;;2.70;99.90;;;;;;5152322;27;20086;-74
2021/12/08 01:33:34;;;;;;;10.48;3.63;;;2.70;99.90;;;;;;5135948;27;20481;-75
2021/12/08 01:36:05;;;;;;;6.80;3.78;;;2.80;99.90;;;;;;5136067;27;20043;-76
2021/12/08 01:38:32;;;;;;;11.18;4.43;;;2.80;99.90;;;;;;5134847;27;20138;-76
2021/12/08 01:40:59;;;;;;;11.50;3.80;;;2.80;99.90;;;;;;5135276;27;20133;-77
2021/12/08 01:43:27;;;;;;;7.03;4.03;;;2.90;99.90;;;;;;5135674;27;20078;-77
2021/12/08 01:46:01;;;;;;;9.45;4.30;;;2.90;99.90;;;;;;5131381;27;20040;-76
2021/12/08 01:48:30;;;;;;;7.25;3.55;;;2.90;99.90;;;;;;5114669;28;20403;-76
2021/12/08 01:51:00;;;;;;;8.85;3.95;;;2.90;99.90;;;;;;5114481;28;20054;-76
2021/12/08 01:53:28;;;;;;;11.65;3.88;;;3.00;99.90;;;;;;5112933;28;20562;-76
2021/12/08 01:55:56;;;;;;;7.90;4.00;;;3.00;99.90;;;;;;5114156;28;20052;-75
2021/12/08 01:58:24;;;;;;;6.38;3.80;;;3.30;99.90;;;;;;5113846;28;20052;-76
2021/12/08 02:00:55;;;;;;;7.05;3.60;;;3.00;99.90;;;;;;5119130;27;20146;-75
2021/12/08 02:03:23;;;;;;;7.60;4.00;;;3.00;99.90;;;;;;5155217;27;20078;-75
2021/12/08 02:05:50;;;;;;;10.15;4.10;;;3.10;99.90;;;;;;5153060;27;20077;-76
2021/12/08 02:08:17;;;;;;;8.20;4.30;;;3.20;99.90;;;;;;5155991;27;20047;-76
2021/12/08 02:10:46;;;;;;;9.93;4.07;;;3.10;99.90;;;;;;5155148;27;20083;-75
2021/12/08 02:13:13;;;;;;;8.65;4.00;;;3.10;99.90;;;;;;5154608;27;20089;-75
2021/12/08 02:15:41;;;;;;;6.28;3.53;;;3.10;99.90;;;;;;5154857;27;20380;-75
2021/12/08 02:18:11;;;;;;;6.35;4.13;;;3.10;99.90;;;;;;5154979;27;20141;-75
2021/12/08 02:20:39;;;;;;;8.95;4.85;;;3.10;99.90;;;;;;5154285;27;20061;-75
2021/12/08 02:23:07;;;;;;;9.30;4.00;;;3.10;99.90;;;;;;5156338;27;20085;-75
2021/12/08 02:25:34;;;;;;;10.48;4.85;;;3.10;99.90;;;;;;5155055;27;20078;-74
2021/12/08 02:28:03;;;;;;;10.20;4.75;;;3.10;99.90;;;;;;5154604;27;20549;-75
2021/12/08 02:30:35;;;;;;;7.57;4.50;;;3.10;99.90;;;;;;5154757;27;20102;-75
2021/12/08 02:47:03;;;;;;;6.80;4.18;;;3.10;99.90;;;;;;5134478;27;20043;-75
2021/12/08 02:49:31;;;;;;;7.22;4.05;;;3.10;99.90;;;;;;5134136;27;20406;-74
2021/12/08 02:51:58;;;;;;;6.97;4.18;;;3.10;99.90;;;;;;5133869;27;20479;-75
2021/12/08 02:54:32;;;;;;;7.63;4.25;;;3.10;99.90;;;;;;5147024;27;20062;-74
2021/12/08 02:56:59;;;;;;;8.57;4.30;;;3.10;99.90;;;;;;5153119;27;20074;-75
2021/12/08 02:59:26;;;;;;;6.78;4.30;;;3.10;99.90;;;;;;5155250;27;20047;-74
2021/12/08 03:01:53;;;;;;;6.63;3.90;;;3.20;99.90;;;;;;5138779;27;20151;-74
2021/12/08 03:04:20;;;;;;;7.22;3.92;;;3.10;99.90;;;;;;5112549;28;20139;-75
2021/12/08 03:06:47;;;;;;;7.72;4.80;;;3.20;99.90;;;;;;5112504;28;20047;-74
2021/12/08 03:09:14;;;;;;;6.93;3.65;;;3.20;99.90;;;;;;5112237;28;20144;-74
2021/12/08 03:11:42;;;;;;;6.93;4.68;;;3.20;99.90;;;;;;5112752;28;20109;-74
2021/12/08 03:14:12;;;;;;;6.07;4.32;;;3.20;99.90;;;;;;5146982;27;20093;-74
2021/12/08 03:16:41;;;;;;;8.73;4.63;;;3.20;99.90;;;;;;5155028;27;20129;-74
2021/12/08 03:19:09;;;;;;;7.65;4.70;;;3.20;99.90;;;;;;5156371;27;20043;-74
2021/12/08 03:21:36;;;;;;;6.10;4.07;;;3.30;99.90;;;;;;5160445;27;20467;-74
2021/12/08 03:24:16;;;;;;;8.68;4.60;;;3.80;99.90;;;;;;5165061;27;20061;-74
2021/12/08 03:26:51;;;;;;;9.38;4.72;;;3.30;99.90;;;;;;5163098;27;20046;-73
2021/12/08 03:29:28;;;;;;;7.82;5.03;;;3.30;99.90;;;;;;5154721;27;20055;-74
2021/12/08 03:32:03;;;;;;;10.38;5.10;;;3.30;99.90;;;;;;5143903;27;20080;-74
2021/12/08 03:34:31;;;;;;;6.80;5.28;;;3.40;99.90;;;;;;5129839;27;20124;-74
2021/12/08 03:36:59;;;;;;;8.00;5.15;;;3.30;99.90;;;;;;5111625;28;20502;-74
2021/12/08 03:39:26;;;;;;;8.63;5.35;;;3.40;99.90;;;;;;5129428;27;20134;-74
2021/12/08 03:41:54;;;;;;;10.77;6.30;;;3.40;99.90;;;;;;5112854;28;20349;-75
2021/12/08 03:44:21;;;;;;;7.68;5.65;;;3.40;99.90;;;;;;5122119;27;20130;-74
2021/12/08 03:46:48;;;;;;;11.18;5.55;;;3.40;99.90;;;;;;5132446;27;20047;-74
2021/12/08 03:49:18;;;;;;;7.22;5.53;;;3.40;99.90;;;;;;5132047;27;20051;-73
2021/12/08 03:51:45;;;;;;;9.30;5.97;;;3.50;99.90;;;;;;5131766;27;20137;-74
2021/12/08 03:54:13;;;;;;;9.38;5.78;;;3.50;99.90;;;;;;5147477;27;20086;-74
2021/12/08 03:56:40;;;;;;;13.07;6.20;;;3.50;99.90;;;;;;5152896;27;20095;-75
2021/12/08 03:59:08;;;;;;;10.75;6.10;;;3.50;99.90;;;;;;5152487;27;20145;-74
2021/12/08 04:01:36;;;;;;;11.35;6.57;;;3.50;99.90;;;;;;5152956;27;20129;-74
2021/12/08 04:04:07;;;;;;;8.23;6.07;;;3.60;99.90;;;;;;5153499;27;20051;-74
2021/12/08 04:06:40;;;;;;;10.05;6.57;;;3.60;99.90;;;;;;5152565;27;20146;-74
2021/12/08 04:09:16;;;;;;;8.13;6.20;;;3.60;99.90;;;;;;5152601;27;20053;-74
2021/12/08 04:11:44;;;;;;;10.50;6.68;;;3.60;99.90;;;;;;5152892;27;20061;-74
2021/12/08 04:14:15;;;;;;;10.75;7.35;;;3.60;99.90;;;;;;5152188;27;20050;-74
2021/12/08 04:16:45;;;;;;;12.05;7.30;;;3.60;99.90;;;;;;5152014;27;20070;-75
2021/12/08 04:19:13;;;;;;;11.95;7.22;;;3.70;99.90;;;;;;5152222;27;20138;-74
2021/12/08 04:21:40;;;;;;;9.82;7.03;;;3.60;99.90;;;;;;5152641;27;20082;-75
2021/12/08 04:24:09;;;;;;;10.02;7.18;;;3.70;99.90;;;;;;5135125;27;20084;-74
2021/12/08 04:26:39;;;;;;;12.98;7.85;;;3.80;99.90;;;;;;5120431;27;20130;-74
2021/12/08 04:29:08;;;;;;;10.20;7.47;;;3.70;99.90;;;;;;5112749;28;20139;-74
2021/12/08 04:31:39;;;;;;;11.35;7.38;;;3.80;99.90;;;;;;5111595;28;20139;-74
2021/12/08 04:34:15;;;;;;;14.07;8.05;;;3.80;99.90;;;;;;5110997;28;20127;-74
2021/12/08 04:36:47;;;;;;;13.93;7.75;;;3.80;99.90;;;;;;5111468;28;20468;-74
2021/12/08 04:39:18;;;;;;;12.20;7.70;;;3.80;99.90;;;;;;5111069;28;20047;-74
2021/12/08 04:41:51;;;;;;;12.73;8.02;;;3.90;99.90;;;;;;5110972;28;20484;-74
2021/12/08 04:44:27;;;;;;;10.98;7.18;;;3.90;99.90;;;;;;5111615;28;20437;-74
2021/12/08 04:47:16;;;;;;;12.35;7.43;;;3.90;99.90;;;;;;5111253;28;20105;-73
2021/12/08 04:52:44;;;;;;;12.93;8.25;;;4.00;99.90;;;;;;5117372;27;20053;-72
2021/12/08 05:01:11;;;;;;;14.55;8.27;;;4.00;99.90;;;;;;5152660;27;20043;-74
2021/12/08 05:03:49;;;;;;;12.20;8.80;;;4.10;99.90;;;;;;5151415;27;20049;-73
2021/12/08 05:06:35;;;;;;;11.20;8.15;;;4.00;99.90;;;;;;5152618;27;20051;-74
2021/12/08 05:09:07;;;;;;;11.73;8.27;;;4.00;99.90;;;;;;5151751;27;20042;-74
2021/12/08 05:11:37;;;;;;;12.18;8.07;;;4.00;99.90;;;;;;5152008;27;20047;-73
2021/12/08 05:14:08;;;;;;;14.00;7.88;;;4.10;99.90;;;;;;5152193;27;20137;-74
2021/12/08 05:16:38;;;;;;;13.02;7.90;;;4.20;99.90;;;;;;5151585;27;20133;-74
2021/12/08 05:19:12;;;;;;;11.57;7.93;;;4.20;99.90;;;;;;5152482;27;20466;-74
2021/12/08 05:21:42;;;;;;;11.20;7.93;;;4.20;99.90;;;;;;5153533;27;20054;-74
2021/12/08 05:24:12;;;;;;;11.07;9.00;;;4.30;99.90;;;;;;5131427;27;20090;-74
2021/12/08 05:26:45;;;;;;;12.40;8.30;;;4.30;99.90;;;;;;5112482;28;20154;-74
2021/12/08 05:29:19;;;;;;;11.55;9.32;;;4.30;99.90;;;;;;5113995;27;20101;-74
2021/12/08 05:31:47;;;;;;;13.50;8.38;;;4.40;99.90;;;;;;5124144;27;20130;-74
2021/12/08 05:34:15;;;;;;;14.00;8.35;;;4.40;99.90;;;;;;5121936;27;20147;-74
2021/12/08 05:36:43;;;;;;;12.77;9.05;;;4.40;99.90;;;;;;5123255;27;20047;-74
2021/12/08 05:39:16;;;;;;;13.23;8.10;;;4.50;99.90;;;;;;5122851;27;20048;-73
2021/12/08 05:41:44;;;;;;;11.60;8.27;;;4.50;99.90;;;;;;5128254;27;20047;-74
2021/12/08 05:44:11;;;;;;;13.88;8.15;;;4.60;99.90;;;;;;5132868;27;20086;-74
2021/12/08 05:46:42;;;;;;;18.20;8.60;;;4.60;99.90;;;;;;5126712;27;20141;-74
2021/12/08 05:49:11;;;;;;;12.95;8.07;;;4.70;99.90;;;;;;5111873;28;20104;-73
2021/12/08 05:51:42;;;;;;;14.60;8.20;;;4.70;99.90;;;;;;5124326;27;20052;-73
2021/12/08 05:54:12;;;;;;;13.77;7.43;;;4.80;99.90;;;;;;5127539;27;20131;-74
2021/12/08 05:56:40;;;;;;;12.55;7.53;;;4.80;99.90;;;;;;5114894;27;20082;-74
2021/12/08 05:59:13;;;;;;;11.73;7.43;;;4.80;99.90;;;;;;5120442;27;20134;-74
2021/12/08 06:01:45;;;;;;;11.43;6.78;;;4.90;99.90;;;;;;5122804;27;20157;-74
2021/12/08 06:04:12;;;;;;;11.82;7.45;;;4.90;99.90;;;;;;5117982;27;20103;-74
2021/12/08 06:06:41;;;;;;;10.48;6.25;;;4.90;99.90;;;;;;5124861;27;20134;-73
2021/12/08 06:09:11;;;;;;;9.38;6.53;;;5.00;99.90;;;;;;5117135;27;20126;-73
2021/12/08 06:11:39;;;;;;;10.23;6.70;;;4.90;99.90;;;;;;5120617;27;20134;-73
2021/12/08 06:14:07;;;;;;;14.05;6.50;;;5.00;99.90;;;;;;5128325;27;20086;-74
2021/12/08 06:16:37;;;;;;;10.73;7.10;;;5.00;99.90;;;;;;5129231;27;20406;-74
2021/12/08 06:19:06;;;;;;;9.50;7.13;;;5.00;99.90;;;;;;5136426;27;20447;-74
2021/12/08 06:21:33;;;;;;;9.73;6.85;;;5.00;99.90;;;;;;5131580;27;20356;-74
2021/12/08 06:24:04;;;;;;;9.68;6.80;;;5.00;99.90;;;;;;5119731;27;20142;-74
2021/12/08 06:26:31;;;;;;;11.38;7.10;;;5.00;99.90;;;;;;5122450;27;20078;-74
2021/12/08 06:28:59;;;;;;;12.43;6.75;;;5.00;99.90;;;;;;5129857;27;20396;-74
2021/12/08 06:31:28;;;;;;;13.40;7.13;;;5.00;99.90;;;;;;5131918;27;20086;-73
2021/12/08 06:33:56;;;;;;;9.15;6.47;;;5.00;99.90;;;;;;5123727;27;20853;-76
2021/12/08 06:36:26;;;;;;;11.20;6.97;;;5.00;99.90;;;;;;5124200;27;20468;-75
2021/12/08 06:38:53;;;;;;;10.77;5.75;;;5.00;99.90;;;;;;5130433;27;20043;-76
2021/12/08 06:41:27;;;;;;;9.07;6.43;;;5.10;99.90;;;;;;5125347;27;20048;-74
2021/12/08 06:43:57;;;;;;;12.05;5.93;;;5.10;99.90;;;;;;5125813;27;20051;-74
2021/12/08 06:46:24;;;;;;;8.73;6.40;;;5.10;99.90;;;;;;5122379;27;20093;-74
2021/12/08 06:48:55;;;;;;;11.13;6.05;;;5.10;99.90;;;;;;5124787;27;20126;-76
2021/12/08 06:51:25;;;;;;;8.38;5.88;;;5.10;99.90;;;;;;5127010;27;20137;-75
2021/12/08 06:53:55;;;;;;;11.55;5.80;;;5.10;99.90;;;;;;5127958;27;20156;-73
2021/12/08 06:56:27;;;;;;;12.57;6.53;;;5.10;99.90;;;;;;5125405;27;20051;-75
2021/12/08 06:58:58;;;;;;;11.48;6.03;;;5.10;99.90;;;;;;5131565;27;20485;-75
2021/12/08 07:01:38;;;;;;;9.85;6.55;;;5.00;99.90;;;;;;5124142;27;20051;-76
2021/12/08 07:04:15;;;;;;;11.30;6.25;;;5.00;99.90;;;;;;5129308;27;20047;-75
2021/12/08 07:06:56;;;;;;;9.50;5.55;;;4.90;99.90;;;;;;5128545;27;20058;-75
2021/12/08 07:09:25;;;;;;;10.98;5.57;;;4.80;99.90;;;;;;5127382;27;20051;-72
2021/12/08 07:11:57;;;;;;;6.72;4.75;;;4.80;99.90;;;;;;5139745;27;20129;-75
2021/12/08 07:14:26;;;;;;;9.48;6.25;;;4.70;99.90;;;;;;5133340;27;20146;-75
2021/12/08 07:16:56;;;;;;;14.48;6.22;;;4.70;99.90;;;;;;5137744;27;20157;-76
2021/12/08 07:19:34;;;;;;;11.85;5.47;;;4.70;99.90;;;;;;5134315;27;20133;-75
2021/12/08 07:22:04;;;;;;;11.02;5.22;;;4.60;99.90;;;;;;5133264;27;20064;-76
2021/12/08 07:24:35;;;;;;;12.27;5.60;;;4.60;99.90;;;;;;5134148;27;20045;-76
2021/12/08 07:27:06;;;;;;;9.80;5.80;;;4.60;99.90;;;;;;5135512;27;20348;-75
2021/12/08 07:29:39;;;;;;;10.63;5.40;;;4.60;99.90;;;;;;5133363;27;20089;-75
2021/12/08 07:32:09;;;;;;;12.68;5.60;;;4.50;99.90;;;;;;5133445;27;20055;-75
2021/12/08 07:34:36;;;;;;;8.32;5.20;;;4.50;99.90;;;;;;5135053;27;20085;-75
2021/12/08 07:37:08;;;;;;;9.25;5.28;;;4.50;99.90;;;;;;5136835;27;20081;-75
2021/12/08 07:39:43;;;;;;;9.88;4.57;;;4.40;99.90;;;;;;5138854;27;20096;-74
2021/12/08 07:42:17;;;;;;;13.18;4.97;;;4.50;99.90;;;;;;5135913;27;20061;-75
2021/12/08 07:44:46;;;;;;;8.68;4.40;;;4.40;99.90;;;;;;5133498;27;20050;-75
2021/12/08 07:47:14;;;;;;;9.13;4.60;;;4.40;99.90;;;;;;5136595;27;20066;-76
2021/12/08 07:49:45;;;;;;;8.02;4.40;;;4.40;99.90;;;;;;5132532;27;20100;-75
2021/12/08 07:52:14;;;;;;;7.00;3.97;;;4.40;99.90;;;;;;5134791;27;20135;-75
2021/12/08 07:54:42;;;;;;;7.60;4.22;;;4.40;99.90;;;;;;5135315;27;20078;-75
2021/12/08 07:57:13;;;;;;;5.88;3.47;;;4.40;99.90;;;;;;5135108;27;20408;-76
2021/12/08 07:59:43;;;;;;;;;;;4.40;99.90;;;;;;5136923;27;20086;-75
2021/12/08 08:02:10;;;;;;;7.35;3.38;;;4.40;99.90;;;;;;5141129;27;20384;-75
2021/12/08 08:04:42;;;;;;;6.40;3.45;;;4.40;99.90;;;;;;5139384;27;20070;-76
2021/12/08 08:07:11;;;;;;;8.15;3.22;;;4.50;99.90;;;;;;5133057;27;20097;-76
2021/12/08 08:09:43;;;;;;;5.90;2.90;;;4.60;99.90;;;;;;5130384;27;20512;-75
2021/12/08 08:12:15;;;;;;;9.18;2.85;;;4.50;99.90;;;;;;5147205;27;20107;-75
2021/12/08 08:14:48;;;;;;;8.93;3.40;;;4.50;99.90;;;;;;5134056;27;20484;-75
2021/12/08 08:17:19;;;;;;;7.03;2.92;;;4.60;99.90;;;;;;5134205;27;20050;-74
2021/12/08 08:19:46;;;;;;;;;;;4.60;99.90;;;;;;5133202;27;20056;-74
2021/12/08 08:22:18;;;;;;;7.07;2.58;;;4.60;99.90;;;;;;5134022;27;19966;-75
2021/12/08 08:24:45;;;;;;;8.95;2.83;;;4.70;99.90;;;;;;5138931;27;20435;-74
2021/12/08 08:27:15;;;;;;;6.30;2.25;;;4.80;99.90;;;;;;5133599;27;20454;-74
2021/12/08 08:29:42;;;;;;;6.28;2.83;;;4.90;99.90;;;;;;5128195;27;20502;-74
2021/12/08 08:32:19;;;;;;;7.75;2.50;;;5.30;99.90;;;;;;5133749;27;20085;-76
2021/12/08 08:34:49;;;;;;;5.38;2.70;;;5.80;99.90;;;;;;5134261;27;20414;-75
2021/12/08 08:37:17;;;;;;;6.47;3.30;;;5.60;99.90;;;;;;5133615;27;20047;-75
2021/12/08 08:39:46;;;;;;;6.28;2.95;;;5.60;99.90;;;;;;5133061;27;20080;-75
2021/12/08 08:42:19;;;;;;;8.55;2.70;;;5.50;99.90;;;;;;5132990;27;20492;-75
2021/12/08 08:44:53;;;;;;;6.20;2.80;;;5.30;99.90;;;;;;5119503;27;20066;-75
2021/12/08 08:47:28;;;;;;;4.03;2.40;;;5.20;99.90;;;;;;5121474;27;20057;-75
2021/12/08 08:49:55;;;;;;;6.38;3.08;;;5.20;99.90;;;;;;5137609;27;20470;-75
2021/12/08 08:52:28;;;;;;;7.63;3.10;;;5.20;99.90;;;;;;5129947;28;20065;-76
2021/12/08 08:54:58;;;;;;;6.80;2.60;;;5.20;99.90;;;;;;5134725;27;20172;-75
2021/12/08 08:57:29;;;;;;;5.63;2.83;;;5.30;99.90;;;;;;5146887;27;20062;-75
2021/12/08 09:00:05;;;;;;;4.97;2.30;;;5.70;99.90;;;;;;5138615;27;20152;-75
2021/12/08 09:02:38;;;;;;;6.40;2.65;;;6.50;99.90;;;;;;5146159;27;20083;-75
2021/12/08 09:05:09;;;;;;;7.57;2.30;;;7.50;99.90;;;;;;5140180;27;20074;-75
2021/12/08 09:07:40;;;;;;;4.35;2.30;;;8.20;99.90;;;;;;5138113;27;20141;-75
2021/12/08 09:10:09;;;;;;;;;;;8.30;99.90;;;;;;5138420;27;20057;-75
2021/12/08 09:12:40;;;;;;;6.88;2.00;;;8.00;99.90;;;;;;5137928;27;19958;-72
2021/12/08 09:15:11;;;;;;;5.80;2.17;;;7.50;99.90;;;;;;5137009;27;20086;-75
2021/12/08 09:17:40;;;;;;;;;;;7.00;99.90;;;;;;5139845;27;20074;-74
2021/12/08 09:20:13;;;;;;;9.07;2.28;;;6.80;99.90;;;;;;5137007;27;19973;-74
2021/12/08 09:22:49;;;;;;;5.55;1.90;;;6.30;99.90;;;;;;5138758;27;20161;-75
2021/12/08 09:25:20;;;;;;;7.00;2.28;;;6.10;99.90;;;;;;5136182;27;20054;-75
2021/12/08 09:27:52;;;;;;;5.20;2.65;;;5.90;99.90;;;;;;5141847;27;20553;-74
2021/12/08 09:30:23;;;;;;;9.95;2.83;;;5.80;99.90;;;;;;5135386;27;20585;-75
2021/12/08 09:32:52;;;;;;;;;;;5.70;99.90;;;;;;5137961;27;20145;-75
2021/12/08 09:35:23;;;;;;;7.85;2.30;;;5.60;99.90;;;;;;5139535;27;19923;-74
2021/12/08 09:37:56;;;;;;;8.32;2.22;;;5.60;99.90;;;;;;5136467;27;20133;-75
2021/12/08 09:40:29;;;;;;;6.32;1.90;;;5.60;99.90;;;;;;5136482;27;20137;-72
2021/12/08 09:43:01;;;;;;;9.15;1.98;;;5.60;99.90;;;;;;5133652;27;20061;-75
2021/12/08 09:45:32;;;;;;;6.55;2.78;;;5.60;99.90;;;;;;5132231;27;20134;-75
2021/12/08 09:48:02;;;;;;;7.25;2.03;;;5.70;99.90;;;;;;5137181;27;20117;-76
2021/12/08 09:50:29;;;;;;;9.07;2.08;;;5.90;99.90;;;;;;5136138;27;20494;-75
2021/12/08 09:52:56;;;;;;;4.60;2.03;;;5.90;99.90;;;;;;5136492;27;20142;-75
2021/12/08 09:55:23;;;;;;;4.32;1.85;;;6.20;99.90;;;;;;5140941;27;20154;-76
2021/12/08 09:57:50;;;;;;;8.85;2.30;;;7.10;99.90;;;;;;5154016;27;20042;-76
2021/12/08 10:00:24;;;;;;;7.85;2.50;;;8.20;99.90;;;;;;5136476;27;20111;-76
2021/12/08 10:02:57;;;;;;;8.38;1.92;;;9.10;99.90;;;;;;5136995;27;20046;-77
2021/12/08 10:05:26;;;;;;;4.07;1.83;;;9.80;99.90;;;;;;5156279;27;20416;-75
2021/12/08 10:07:53;;;;;;;5.47;2.10;;;10.10;99.90;;;;;;5139769;27;20142;-76
2021/12/08 10:10:20;;;;;;;6.25;2.45;;;10.20;99.90;;;;;;5138962;27;20459;-75
2021/12/08 10:12:48;;;;;;;8.60;1.90;;;9.70;99.90;;;;;;5139965;27;20781;-74
2021/12/08 10:15:17;;;;;;;4.75;2.00;;;9.90;99.90;;;;;;5136045;27;20074;-75
2021/12/08 10:17:47;;;;;;;5.97;1.93;;;10.40;99.90;;;;;;5128861;27;20498;-75
2021/12/08 10:20:18;;;;;;;8.77;2.05;;;10.90;99.90;;;;;;5132432;27;20047;-76
2021/12/08 10:22:48;;;;;;;6.00;2.20;;;11.30;99.90;;;;;;5132745;27;20471;-75
2021/12/08 10:25:18;;;;;;;4.93;1.95;;;11.70;99.90;;;;;;5134018;27;20046;-75
2021/12/08 10:28:07;;;;;;;6.95;2.10;;;12.00;99.90;;;;;;5135373;27;20050;-75
2021/12/08 10:30:38;;;;;;;4.70;2.22;;;12.50;99.90;;;;;;5136049;27;20166;-75
2021/12/08 10:33:12;;;;;;;;;;;12.70;99.90;;;;;;5135506;27;20051;-75
2021/12/08 10:35:47;;;;;;;5.78;2.15;;;12.50;99.90;;;;;;5132395;27;19964;-75
2021/12/08 10:38:16;;;;;;;9.82;1.98;;;12.90;99.90;;;;;;5135513;27;20525;-75
2021/12/08 10:40:57;;;;;;;6.28;2.17;;;13.10;99.90;;;;;;5135324;27;20490;-75
2021/12/08 10:43:24;;;;;;;5.55;1.60;;;13.90;99.90;;;;;;5135761;27;20533;-76
2021/12/08 10:46:01;;;;;;;3.03;1.50;;;14.30;99.90;;;;;;5147762;27;20079;-75
2021/12/08 10:48:35;;;;;;;5.75;2.10;;;14.50;99.90;;;;;;5126094;27;20074;-75
2021/12/08 10:56:37;;;;;;;6.88;2.13;;;12.30;99.90;;;;;;5126008;27;20054;-75
2021/12/08 10:59:04;;;;;;;4.38;1.95;;;11.50;99.90;;;;;;5131474;27;20171;-75
2021/12/08 11:01:31;;;;;;;7.85;1.77;;;11.90;99.90;;;;;;5126059;27;20079;-76
2021/12/08 11:04:02;;;;;;;5.65;1.73;;;12.80;99.90;;;;;;5134116;27;20082;-76
2021/12/08 11:06:31;;;;;;;5.05;1.65;;;13.30;99.90;;;;;;5130752;27;20134;-76
2021/12/08 11:08:58;;;;;;;6.95;2.15;;;13.70;99.90;;;;;;5123597;27;20382;-76
2021/12/08 11:11:28;;;;;;;9.20;2.40;;;14.10;99.90;;;;;;5130664;27;20080;-76
2021/12/08 11:13:57;;;;;;;7.45;1.90;;;14.60;99.90;;;;;;5123643;27;20051;-76
2021/12/08 11:16:26;;;;;;;7.15;1.80;;;14.60;99.90;;;;;;5141136;27;20149;-76
2021/12/08 11:19:01;;;;;;;4.70;1.90;;;14.10;99.90;;;;;;5129308;27;20042;-76
2021/12/08 11:21:35;;;;;;;8.23;1.80;;;13.30;99.90;;;;;;5129582;27;20051;-76
2021/12/08 11:24:03;;;;;;;7.75;2.30;;;12.40;99.90;;;;;;5125848;27;20051;-75
2021/12/08 11:26:33;;;;;;;4.68;1.58;;;11.50;99.90;;;;;;5124131;27;20506;-74
2021/12/08 11:29:05;;;;;;;6.07;1.83;;;10.60;99.90;;;;;;5128135;27;20047;-75
2021/12/08 11:31:36;;;;;;;4.88;2.22;;;9.80;99.90;;;;;;5129639;27;20442;-75
2021/12/08 11:34:13;;;;;;;9.43;2.10;;;9.30;99.90;;;;;;5131591;27;20563;-75
2021/12/08 11:36:40;;;;;;;6.63;2.72;;;8.90;99.90;;;;;;5125621;27;20082;-74
2021/12/08 11:39:11;;;;;;;10.20;2.00;;;8.50;99.90;;;;;;5127644;27;20138;-74
2021/12/08 11:41:40;;;;;;;7.13;2.40;;;8.30;99.90;;;;;;5127483;27;20099;-75
2021/12/08 11:44:10;;;;;;;5.32;1.95;;;8.00;99.90;;;;;;5125280;27;20129;-75
2021/12/08 11:46:45;;;;;;;7.38;2.35;;;7.80;99.90;;;;;;5129861;27;20462;-74
2021/12/08 11:49:14;;;;;;;7.70;2.20;;;7.70;99.90;;;;;;5126773;27;20119;-76
2021/12/08 11:52:05;;;;;;;8.20;1.98;;;7.60;99.90;;;;;;5130527;27;20093;-76
2021/12/08 11:54:52;;;;;;;5.25;2.10;;;7.60;99.90;;;;;;5125087;27;20058;-76
2021/12/08 11:57:22;;;;;;;5.75;2.10;;;7.50;99.90;;;;;;5132169;27;20067;-76
2021/12/08 12:00:04;;;;;;;5.45;1.88;;;7.40;99.90;;;;;;5132371;27;20130;-76
2021/12/08 12:02:34;;;;;;;7.78;2.60;;;7.20;99.90;;;;;;5133900;27;20099;-76
2021/12/08 12:05:05;;;;;;;6.60;1.98;;;7.10;99.90;;;;;;5130842;27;20055;-75
2021/12/08 12:07:32;;;;;;;6.53;1.85;;;7.10;99.90;;;;;;5133040;27;20521;-75
2021/12/08 12:09:59;;;;;;;8.27;2.45;;;7.10;99.90;;;;;;5133934;27;20506;-75
2021/12/08 12:12:27;;;;;;;5.60;2.10;;;6.90;99.90;;;;;;5133470;27;20050;-76
2021/12/08 12:14:54;;;;;;;7.47;2.05;;;6.80;99.90;;;;;;5134276;27;20133;-76
2021/12/08 12:17:20;;;;;;;4.90;2.45;;;6.70;99.90;;;;;;5134032;27;20078;-75
2021/12/08 12:19:52;;;;;;;5.00;2.25;;;6.70;99.90;;;;;;5130161;27;20099;-76
2021/12/08 12:22:39;;;;;;;10.27;2.35;;;6.60;99.90;;;;;;5132865;27;20149;-76
2021/12/08 12:25:35;;;;;;;5.70;2.38;;;6.60;99.90;;;;;;5131909;27;20427;-75
2021/12/08 12:28:28;;;;;;;6.55;1.92;;;6.60;99.90;;;;;;5133016;27;20379;-76
2021/12/08 12:31:13;;;;;;;5.95;2.00;;;6.60;99.90;;;;;;5133871;27;20042;-75
2021/12/08 12:33:45;;;;;;;8.15;2.53;;;6.60;99.90;;;;;;5133742;27;20158;-76
2021/12/08 12:36:20;;;;;;;17.67;2.72;;;6.50;99.90;;;;;;5134610;27;20126;-76
2021/12/08 12:38:49;;;;;;;8.20;2.58;;;6.50;99.90;;;;;;5137962;27;20078;-76
2021/12/08 12:41:29;;;;;;;6.00;3.00;;;6.50;99.90;;;;;;5138392;27;20054;-75
2021/12/08 12:44:15;;;;;;;7.50;2.85;;;6.40;99.90;;;;;;5138023;27;20107;-75
2021/12/08 12:47:20;;;;;;;7.72;2.72;;;6.40;99.90;;;;;;5137667;27;20535;-75
2021/12/08 12:49:50;;;;;;;6.63;2.88;;;6.30;99.90;;;;;;5150986;27;20053;-75
2021/12/08 12:52:18;;;;;;;9.20;2.60;;;6.30;99.90;;;;;;5138437;27;20129;-75
2021/12/08 12:54:47;;;;;;;8.27;3.03;;;6.20;99.90;;;;;;5134606;27;20115;-75
2021/12/08 12:57:14;;;;;;;5.97;2.65;;;6.30;99.90;;;;;;5135267;27;20082;-75
2021/12/08 12:59:44;;;;;;;5.32;2.72;;;6.20;99.90;;;;;;5132793;27;20092;-75
2021/12/08 13:02:20;;;;;;;9.75;2.55;;;6.30;99.90;;;;;;5131805;27;20430;-75
2021/12/08 13:04:52;;;;;;;4.13;2.40;;;6.30;99.90;;;;;;5131279;27;20052;-75
2021/12/08 13:07:20;;;;;;;6.25;2.60;;;6.30;99.90;;;;;;5128740;27;20051;-75
2021/12/08 13:09:52;;;;;;;7.47;2.90;;;6.30;99.90;;;;;;5133791;27;20146;-75
2021/12/08 13:12:21;;;;;;;7.32;3.30;;;6.30;99.90;;;;;;5134643;27;20483;-75
2021/12/08 13:15:05;;;;;;;6.53;3.08;;;6.30;99.90;;;;;;5133876;27;20141;-75
2021/12/08 13:17:32;;;;;;;5.30;2.42;;;6.30;99.90;;;;;;5131753;27;20047;-76
2021/12/08 13:20:01;;;;;;;4.65;2.58;;;6.20;99.90;;;;;;5134220;27;20043;-76
2021/12/08 13:22:51;;;;;;;7.22;2.88;;;6.20;99.90;;;;;;5133881;27;20133;-75
2021/12/08 13:25:40;;;;;;;9.30;2.75;;;6.20;99.90;;;;;;5134098;27;20055;-76
2021/12/08 13:28:18;;;;;;;5.95;2.72;;;6.20;99.90;;;;;;5133033;27;20051;-76
2021/12/08 13:30:48;;;;;;;6.28;2.20;;;6.20;99.90;;;;;;5134624;27;20210;-75
2021/12/08 13:33:25;;;;;;;8.95;2.80;;;6.20;99.90;;;;;;5128894;27;20498;-75
2021/12/08 13:35:53;;;;;;;10.60;2.80;;;6.20;99.90;;;;;;5133205;27;20089;-75
2021/12/08 13:38:20;;;;;;;14.23;3.42;;;6.10;99.90;;;;;;5133885;27;20079;-75
2021/12/08 13:40:53;;;;;;;9.50;2.80;;;6.20;99.90;;;;;;5133546;27;20074;-75
2021/12/08 13:43:34;;;;;;;9.85;3.00;;;6.20;99.90;;;;;;5129906;27;20126;-75
2021/12/08 13:46:01;;;;;;;11.68;3.00;;;6.20;99.90;;;;;;5130797;27;20092;-75